createdAt,value
2023-04-28T00:00:14.089Z,10.10
2023-04-28T00:03:02.503Z,10.10
2023-04-28T00:05:31.110Z,11.40
2023-04-28T00:07:59.480Z,11.90
2023-04-28T00:10:28.154Z,10.90
2023-04-28T00:12:56.856Z,10.80
2023-04-28T00:15:25.574Z,10.70
2023-04-28T00:17:54.703Z,10.20
2023-04-28T00:20:23.310Z,11.20
2023-04-28T00:22:51.637Z,11.50
2023-04-28T00:25:20.104Z,11.80
2023-04-28T00:27:48.482Z,9.80
2023-04-28T00:30:18.256Z,7.60
2023-04-28T00:32:47.046Z,10.20
2023-04-28T00:35:15.800Z,10.30
2023-04-28T00:37:44.595Z,9.80
2023-04-28T00:40:14.328Z,10.00
2023-04-28T00:42:42.755Z,9.80
2023-04-28T00:45:11.858Z,10.10
2023-04-28T00:47:40.990Z,10.20
2023-04-28T00:50:11.221Z,8.90
2023-04-28T00:52:41.103Z,10.00
2023-04-28T00:55:10.029Z,10.90
2023-04-28T00:57:38.307Z,10.30
2023-04-28T01:00:09.752Z,9.50
2023-04-28T01:02:38.936Z,10.10
2023-04-28T01:05:09.369Z,10.00
2023-04-28T01:07:37.849Z,10.20
2023-04-28T01:10:08.764Z,10.40
2023-04-28T01:12:37.179Z,10.00
2023-04-28T01:15:07.821Z,9.00
2023-04-28T01:17:36.349Z,8.60
2023-04-28T01:20:07.560Z,10.20
2023-04-28T01:22:36.137Z,9.70
2023-04-28T01:25:05.328Z,10.80
2023-04-28T01:27:33.851Z,10.70
2023-04-28T01:30:02.913Z,10.10
2023-04-28T01:32:31.825Z,9.80
2023-04-28T01:35:00.207Z,10.00
2023-04-28T01:37:28.727Z,9.40
2023-04-28T01:39:57.328Z,10.90
2023-04-28T01:42:25.770Z,11.20
2023-04-28T01:44:54.979Z,10.00
2023-04-28T01:47:23.521Z,10.00
2023-04-28T01:49:52.484Z,11.30
2023-04-28T01:52:22.594Z,9.50
2023-04-28T01:54:50.945Z,10.90
2023-04-28T01:57:21.825Z,10.30
2023-04-28T01:59:50.904Z,10.10
2023-04-28T02:02:19.311Z,10.20
2023-04-28T02:04:47.801Z,10.10
2023-04-28T02:07:16.251Z,9.70
2023-04-28T02:09:45.811Z,10.20
2023-04-28T02:12:14.365Z,10.30
2023-04-28T02:14:45.492Z,10.00
2023-04-28T02:17:13.847Z,10.40
2023-04-28T02:19:42.584Z,10.30
2023-04-28T02:22:11.456Z,11.00
2023-04-28T02:24:40.024Z,11.60
2023-04-28T02:27:09.040Z,12.00
2023-04-28T02:29:37.809Z,11.10
2023-04-28T02:32:06.533Z,10.40
2023-04-28T02:34:34.935Z,11.90
2023-04-28T02:37:03.702Z,12.30
2023-04-28T02:39:32.783Z,10.60
2023-04-28T02:42:04.875Z,12.60
2023-04-28T02:44:39.583Z,11.30
2023-04-28T02:47:08.105Z,12.10
2023-04-28T02:49:36.839Z,12.90
2023-04-28T02:52:05.636Z,12.60
2023-04-28T02:54:36.092Z,12.00
2023-04-28T02:57:04.995Z,11.20
2023-04-28T02:59:33.858Z,9.90
2023-04-28T03:02:03.185Z,11.70
2023-04-28T03:04:34.239Z,11.30
2023-04-28T03:07:02.844Z,11.50
2023-04-28T03:09:33.512Z,12.60
2023-04-28T03:12:02.917Z,12.10
2023-04-28T03:14:31.345Z,12.00
2023-04-28T03:17:00.866Z,11.30
2023-04-28T03:19:29.679Z,11.70
2023-04-28T03:22:02.440Z,12.50
2023-04-28T03:24:31.847Z,10.70
2023-04-28T03:27:01.878Z,11.60
2023-04-28T03:29:32.453Z,12.30
2023-04-28T03:32:03.640Z,12.40
2023-04-28T03:34:32.829Z,11.70
2023-04-28T03:37:01.454Z,12.00
2023-04-28T03:39:30.426Z,11.50
2023-04-28T03:41:59.266Z,13.50
2023-04-28T03:44:27.858Z,12.20
2023-04-28T03:46:56.666Z,13.60
2023-04-28T03:49:25.589Z,13.10
2023-04-28T03:51:55.482Z,12.00
2023-04-28T03:54:24.034Z,11.40
2023-04-28T03:56:52.740Z,11.10
2023-04-28T03:59:21.229Z,11.70
2023-04-28T04:01:49.726Z,12.60
2023-04-28T04:04:18.749Z,14.50
2023-04-28T04:06:48.026Z,13.20
2023-04-28T04:09:16.483Z,13.40
2023-04-28T04:11:45.115Z,13.00
2023-04-28T04:14:13.778Z,13.20
2023-04-28T04:16:43.864Z,13.80
2023-04-28T04:19:12.465Z,13.10
2023-04-28T04:21:41.507Z,11.90
2023-04-28T04:24:10.227Z,12.50
2023-04-28T04:26:39.488Z,12.60
2023-04-28T04:29:07.963Z,14.90
2023-04-28T04:31:37.190Z,14.40
2023-04-28T04:34:06.165Z,13.10
2023-04-28T04:36:34.608Z,14.00
2023-04-28T04:39:03.208Z,14.90
2023-04-28T04:41:31.681Z,13.80
2023-04-28T04:44:00.136Z,14.20
2023-04-28T04:46:28.676Z,13.50
2023-04-28T04:48:57.288Z,14.00
2023-04-28T04:51:25.795Z,12.80
2023-04-28T04:53:54.914Z,13.50
2023-04-28T04:56:23.590Z,13.70
2023-04-28T04:58:52.823Z,12.60
2023-04-28T05:01:21.680Z,13.50
2023-04-28T05:03:50.472Z,14.60
2023-04-28T05:06:19.174Z,12.70
2023-04-28T05:08:50.022Z,14.40
2023-04-28T05:11:19.057Z,13.60
2023-04-28T05:13:47.443Z,14.90
2023-04-28T05:16:16.758Z,13.50
2023-04-28T05:18:48.093Z,14.70
2023-04-28T05:21:16.507Z,15.70
2023-04-28T05:23:45.456Z,13.10
2023-04-28T05:26:14.293Z,14.10
2023-04-28T05:28:42.937Z,13.00
2023-04-28T05:31:12.069Z,14.30
2023-04-28T05:33:40.525Z,14.20
2023-04-28T05:36:09.345Z,15.20
2023-04-28T05:38:37.824Z,14.80
2023-04-28T05:41:06.455Z,14.70
2023-04-28T05:43:35.455Z,16.30
2023-04-28T05:46:06.356Z,16.80
2023-04-28T05:48:40.857Z,14.50
2023-04-28T05:51:12.344Z,14.70
2023-04-28T05:53:41.269Z,20.30
2023-04-28T05:56:10.098Z,15.80
2023-04-28T05:58:38.596Z,16.90
2023-04-28T06:01:06.999Z,13.20
2023-04-28T06:03:35.925Z,16.90
2023-04-28T06:06:07.787Z,16.70
2023-04-28T06:08:38.870Z,13.50
2023-04-28T06:11:07.769Z,15.20
2023-04-28T06:13:36.411Z,15.30
2023-04-28T06:16:06.083Z,16.60
2023-04-28T06:18:34.950Z,14.10
2023-04-28T06:21:03.745Z,15.50
2023-04-28T06:23:32.310Z,16.00
2023-04-28T06:26:00.897Z,13.90
2023-04-28T06:28:30.624Z,15.60
2023-04-28T06:31:00.617Z,21.10
2023-04-28T06:33:29.502Z,15.10
2023-04-28T06:35:58.081Z,14.70
2023-04-28T06:38:26.771Z,13.80
2023-04-28T06:40:55.944Z,11.90
2023-04-28T06:43:24.417Z,16.50
2023-04-28T06:45:52.886Z,12.40
2023-04-28T06:48:21.318Z,12.30
2023-04-28T06:50:49.857Z,17.10
2023-04-28T06:53:18.353Z,15.40
2023-04-28T06:55:46.847Z,10.60
2023-04-28T06:58:15.821Z,13.90
2023-04-28T07:00:44.408Z,9.40
2023-04-28T07:03:13.569Z,13.00
2023-04-28T07:05:42.401Z,12.20
2023-04-28T07:08:10.992Z,8.10
2023-04-28T07:10:39.823Z,11.90
2023-04-28T07:13:08.587Z,11.50
2023-04-28T07:15:39.508Z,7.50
2023-04-28T07:18:08.052Z,11.00
2023-04-28T07:20:36.537Z,11.20
2023-04-28T07:23:05.277Z,10.80
2023-04-28T07:25:34.659Z,9.10
2023-04-28T07:28:06.796Z,11.20
2023-04-28T07:30:35.815Z,10.90
2023-04-28T07:33:05.015Z,10.50
2023-04-28T07:35:35.254Z,10.10
2023-04-28T07:38:06.293Z,9.40
2023-04-28T07:40:36.526Z,9.50
2023-04-28T07:43:05.600Z,8.10
2023-04-28T07:45:36.778Z,7.30
2023-04-28T07:48:07.147Z,7.80
2023-04-28T07:50:35.977Z,7.00
2023-04-28T07:53:04.603Z,3.80
2023-04-28T07:55:35.237Z,5.20
2023-04-28T07:58:03.983Z,4.60
2023-04-28T08:00:32.896Z,3.50
2023-04-28T08:03:01.909Z,5.80
2023-04-28T08:05:33.287Z,4.10
2023-04-28T08:08:05.746Z,4.20
2023-04-28T08:10:34.736Z,5.00
2023-04-28T08:13:03.580Z,4.70
2023-04-28T08:15:32.199Z,4.20
2023-04-28T08:18:01.139Z,4.60
2023-04-28T08:20:32.011Z,4.40
2023-04-28T08:23:01.020Z,4.00
2023-04-28T08:25:29.518Z,3.80
2023-04-28T08:27:59.471Z,3.70
2023-04-28T08:30:28.758Z,4.10
2023-04-28T08:32:57.570Z,3.00
2023-04-28T08:35:27.229Z,1.90
2023-04-28T08:37:55.817Z,2.30
2023-04-28T08:40:26.391Z,8.10
2023-04-28T08:42:56.682Z,4.20
2023-04-28T08:45:26.715Z,3.70
2023-04-28T08:48:00.114Z,3.80
2023-04-28T08:50:29.978Z,3.20
2023-04-28T08:52:58.569Z,2.50
2023-04-28T08:55:27.669Z,3.10
2023-04-28T08:57:57.739Z,3.20
2023-04-28T09:00:27.492Z,4.10
2023-04-28T09:02:56.500Z,3.30
2023-04-28T09:05:25.787Z,3.30
2023-04-28T09:07:55.790Z,4.70
2023-04-28T09:10:25.915Z,4.30
2023-04-28T09:12:56.204Z,3.80
2023-04-28T09:15:33.275Z,3.10
2023-04-28T09:18:03.421Z,3.20
2023-04-28T09:20:33.379Z,3.80
2023-04-28T09:23:17.270Z,3.60
2023-04-28T09:26:00.447Z,3.80
2023-04-28T09:28:32.202Z,3.10
2023-04-28T09:31:02.554Z,3.50
2023-04-28T09:33:31.314Z,3.80
2023-04-28T09:35:59.941Z,3.60
2023-04-28T09:38:28.622Z,3.20
2023-04-28T09:40:59.587Z,3.70
2023-04-28T09:43:29.905Z,3.70
2023-04-28T09:45:59.540Z,3.60
2023-04-28T09:48:29.489Z,4.00
2023-04-28T09:50:58.738Z,4.40
2023-04-28T09:53:27.631Z,3.60
2023-04-28T09:55:57.693Z,3.70
2023-04-28T09:58:28.327Z,3.00
2023-04-28T10:00:58.337Z,3.10
2023-04-28T10:03:29.777Z,3.40
2023-04-28T10:05:59.562Z,3.10
2023-04-28T10:08:29.249Z,3.30
2023-04-28T10:11:03.417Z,3.30
2023-04-28T10:13:39.402Z,4.40
2023-04-28T10:16:09.258Z,3.60
2023-04-28T10:18:39.968Z,3.80
2023-04-28T10:21:11.243Z,3.10
2023-04-28T10:24:03.612Z,3.80
2023-04-28T10:27:03.242Z,3.30
2023-04-28T10:29:33.138Z,3.80
2023-04-28T10:32:18.905Z,3.10
2023-04-28T10:34:49.150Z,2.40
2023-04-28T10:37:18.671Z,2.70
2023-04-28T10:40:29.401Z,2.40
2023-04-28T10:42:58.840Z,2.00
2023-04-28T10:46:04.534Z,2.20
2023-04-28T10:49:06.325Z,2.20
2023-04-28T10:51:37.080Z,2.40
2023-04-28T10:54:14.052Z,2.30
2023-04-28T10:56:43.973Z,2.40
2023-04-28T10:59:30.221Z,2.50
2023-04-28T11:02:44.890Z,3.10
2023-04-28T11:05:18.797Z,2.90
2023-04-28T11:11:05.257Z,3.20
2023-04-28T11:13:34.130Z,2.40
2023-04-28T11:16:06.669Z,2.50
2023-04-28T11:18:56.370Z,2.50
2023-04-28T11:21:27.975Z,2.40
2023-04-28T11:23:58.305Z,2.70
2023-04-28T11:26:28.863Z,2.10
2023-04-28T11:28:58.357Z,2.50
2023-04-28T11:31:28.138Z,2.70
2023-04-28T11:34:05.172Z,2.40
2023-04-28T11:36:37.209Z,2.00
2023-04-28T11:39:11.086Z,2.10
2023-04-28T11:41:46.991Z,2.10
2023-04-28T11:44:21.813Z,3.10
2023-04-28T11:46:55.540Z,2.70
2023-04-28T11:51:54.325Z,2.30
2023-04-28T11:54:25.227Z,2.70
2023-04-28T11:57:04.436Z,2.40
2023-04-28T11:59:34.522Z,2.70
2023-04-28T12:02:06.848Z,2.30
2023-04-28T12:04:44.705Z,3.10
2023-04-28T12:07:21.236Z,2.90
2023-04-28T12:10:12.142Z,2.50
2023-04-28T12:12:52.044Z,2.90
2023-04-28T12:15:24.981Z,2.60
2023-04-28T12:17:54.123Z,2.70
2023-04-28T12:20:39.466Z,2.30
2023-04-28T12:23:09.702Z,3.20
2023-04-28T12:25:49.667Z,2.90
2023-04-28T12:28:18.310Z,2.90
2023-04-28T12:30:49.084Z,3.00
2023-04-28T12:33:26.477Z,2.80
2023-04-28T12:35:56.139Z,2.90
2023-04-28T12:38:28.309Z,2.80
2023-04-28T12:40:58.322Z,3.50
2023-04-28T12:43:29.689Z,3.10
2023-04-28T12:46:00.161Z,2.70
2023-04-28T12:48:29.351Z,14.70
2023-04-28T12:50:58.523Z,11.60
2023-04-28T12:56:26.844Z,3.30
2023-04-28T12:59:06.445Z,3.60
2023-04-28T13:01:37.159Z,4.10
2023-04-28T13:04:30.565Z,3.80
2023-04-28T13:07:01.935Z,3.40
2023-04-28T13:09:38.456Z,3.90
2023-04-28T13:12:09.734Z,4.30
2023-04-28T13:14:38.465Z,4.10
2023-04-28T13:17:08.679Z,3.70
2023-04-28T13:19:42.806Z,3.50
2023-04-28T13:22:12.792Z,3.70
2023-04-28T13:24:42.502Z,4.00
2023-04-28T13:27:11.926Z,21.50
2023-04-28T13:29:49.616Z,4.80
2023-04-28T13:32:21.730Z,4.10
2023-04-28T13:34:52.058Z,4.50
2023-04-28T13:37:20.890Z,4.60
2023-04-28T13:39:49.869Z,3.90
2023-04-28T13:42:18.702Z,4.50
2023-04-28T13:44:48.593Z,4.00
2023-04-28T13:47:17.133Z,4.40
2023-04-28T13:49:47.923Z,4.10
2023-04-28T13:52:22.353Z,4.30
2023-04-28T13:54:56.150Z,4.70
2023-04-28T13:57:25.470Z,3.80
2023-04-28T13:59:54.085Z,4.10
2023-04-28T14:02:27.028Z,4.50
2023-04-28T14:04:56.265Z,4.30
2023-04-28T14:07:28.698Z,4.60
2023-04-28T14:09:57.533Z,4.40
2023-04-28T14:12:26.462Z,4.60
2023-04-28T14:14:55.233Z,4.40
2023-04-28T14:17:24.599Z,5.00
2023-04-28T14:19:55.662Z,4.70
2023-04-28T14:22:31.793Z,4.50
2023-04-28T14:25:00.733Z,5.10
2023-04-28T14:27:32.516Z,4.80
2023-04-28T14:30:02.226Z,4.70
2023-04-28T14:32:33.573Z,5.50
2023-04-28T14:35:05.133Z,4.40
2023-04-28T14:37:34.688Z,4.90
2023-04-28T14:40:05.055Z,4.40
2023-04-28T14:42:37.050Z,4.50
2023-04-28T14:45:08.421Z,4.10
2023-04-28T14:47:38.558Z,4.20
2023-04-28T14:50:13.844Z,4.80
2023-04-28T14:52:43.586Z,5.10
2023-04-28T14:55:15.275Z,4.50
2023-04-28T14:57:48.054Z,4.30
2023-04-28T15:00:19.524Z,4.90
2023-04-28T15:02:49.102Z,5.40
2023-04-28T15:05:18.019Z,4.80
2023-04-28T15:07:47.070Z,5.30
2023-04-28T15:10:17.149Z,5.20
2023-04-28T15:12:49.061Z,4.50
2023-04-28T15:15:20.077Z,4.90
2023-04-28T15:17:48.903Z,5.00
2023-04-28T15:20:21.277Z,4.50
2023-04-28T15:22:51.042Z,4.70
2023-04-28T15:25:20.458Z,4.80
2023-04-28T15:27:49.815Z,4.80
2023-04-28T15:30:18.784Z,4.00
2023-04-28T15:32:57.254Z,4.90
2023-04-28T15:35:37.053Z,4.60
2023-04-28T15:38:10.796Z,5.20
2023-04-28T15:40:44.833Z,4.70
2023-04-28T15:43:15.755Z,5.20
2023-04-28T15:45:47.294Z,5.30
2023-04-28T15:48:27.642Z,4.70
2023-04-28T15:51:01.402Z,4.50
2023-04-28T15:53:35.938Z,4.60
2023-04-28T15:56:11.129Z,5.40
2023-04-28T15:58:41.025Z,5.10
2023-04-28T16:01:09.995Z,5.60
2023-04-28T16:03:40.222Z,5.40
2023-04-28T16:06:09.796Z,5.40
2023-04-28T16:08:39.716Z,6.70
2023-04-28T16:11:17.324Z,5.30
2023-04-28T16:13:46.378Z,5.10
2023-04-28T16:16:15.262Z,4.50
2023-04-28T16:18:44.288Z,5.60
2023-04-28T16:21:23.176Z,4.80
2023-04-28T16:23:55.639Z,5.60
2023-04-28T16:26:24.944Z,5.50
2023-04-28T16:28:54.344Z,5.10
2023-04-28T16:31:28.102Z,5.20
2023-04-28T16:36:33.151Z,5.20
2023-04-28T16:39:04.278Z,5.30
2023-04-28T16:41:33.655Z,5.70
2023-04-28T16:44:02.201Z,4.90
2023-04-28T16:46:30.812Z,5.40
2023-04-28T16:49:02.330Z,4.90
2023-04-28T16:51:32.954Z,5.50
2023-04-28T16:54:01.948Z,5.20
2023-04-28T16:56:40.618Z,5.30
2023-04-28T16:59:10.649Z,5.00
2023-04-28T17:01:42.662Z,4.70
2023-04-28T17:04:15.147Z,4.70
2023-04-28T17:06:47.201Z,5.60
2023-04-28T17:09:16.599Z,4.80
2023-04-28T17:11:45.206Z,4.90
2023-04-28T17:14:15.723Z,5.20
2023-04-28T17:16:44.876Z,5.10
2023-04-28T17:19:14.295Z,4.80
2023-04-28T17:21:44.094Z,4.80
2023-04-28T17:24:13.698Z,5.60
2023-04-28T17:26:42.456Z,4.40
2023-04-28T17:29:13.974Z,5.50
2023-04-28T17:31:46.166Z,5.20
2023-04-28T17:34:15.399Z,5.60
2023-04-28T17:36:44.093Z,6.20
2023-04-28T17:39:14.845Z,9.40
2023-04-28T17:41:46.627Z,5.90
2023-04-28T17:44:15.580Z,5.00
2023-04-28T17:46:44.865Z,5.10
2023-04-28T17:49:13.470Z,5.50
2023-04-28T17:51:43.354Z,5.50
2023-04-28T17:54:12.045Z,5.00
2023-04-28T17:56:40.911Z,6.60
2023-04-28T17:59:12.671Z,6.40
2023-04-28T18:01:43.929Z,6.40
2023-04-28T18:04:15.412Z,5.90
2023-04-28T18:06:48.395Z,5.60
2023-04-28T18:09:26.679Z,6.50
2023-04-28T18:12:02.617Z,6.10
2023-04-28T18:14:32.457Z,6.80
2023-04-28T18:17:02.465Z,6.10
2023-04-28T18:19:34.453Z,6.40
2023-04-28T18:22:03.776Z,6.00
2023-04-28T18:24:36.922Z,7.40
2023-04-28T18:27:05.584Z,7.20
2023-04-28T18:29:34.738Z,6.50
2023-04-28T18:32:05.235Z,6.30
2023-04-28T18:34:35.813Z,6.40
2023-04-28T18:37:09.249Z,7.10
2023-04-28T18:39:41.321Z,7.30
2023-04-28T18:42:11.608Z,7.10
2023-04-28T18:44:42.634Z,7.30
2023-04-28T18:47:12.976Z,7.20
2023-04-28T18:49:44.588Z,6.90
2023-04-28T18:52:13.919Z,7.40
2023-04-28T18:54:43.391Z,7.50
2023-04-28T18:57:19.178Z,7.90
2023-04-28T18:59:49.333Z,7.30
2023-04-28T19:02:20.105Z,8.70
2023-04-28T19:04:49.072Z,8.80
2023-04-28T19:07:22.488Z,8.40
2023-04-28T19:09:53.533Z,9.70
2023-04-28T19:12:22.488Z,8.80
2023-04-28T19:14:55.832Z,15.20
2023-04-28T19:17:27.238Z,12.10
2023-04-28T19:19:57.236Z,25.60
2023-04-28T19:22:36.124Z,11.60
2023-04-28T19:25:11.657Z,10.50
2023-04-28T19:27:43.430Z,10.30
2023-04-28T19:30:16.944Z,10.10
2023-04-28T19:32:45.546Z,10.90
2023-04-28T19:35:14.128Z,10.30
2023-04-28T19:37:43.901Z,11.30
2023-04-28T19:40:14.090Z,10.10
2023-04-28T19:42:42.858Z,10.60
2023-04-28T19:45:12.352Z,11.00
2023-04-28T19:47:41.760Z,10.50
2023-04-28T19:50:14.102Z,10.80
2023-04-28T19:52:45.952Z,10.90
2023-04-28T19:55:18.017Z,12.00
2023-04-28T19:57:46.734Z,12.00
2023-04-28T20:00:18.405Z,12.00
2023-04-28T20:02:47.532Z,12.20
2023-04-28T20:05:17.485Z,11.90
2023-04-28T20:07:46.628Z,12.70
2023-04-28T20:10:15.317Z,13.00
2023-04-28T20:12:44.887Z,14.10
2023-04-28T20:15:18.071Z,13.60
2023-04-28T20:17:47.969Z,14.90
2023-04-28T20:20:16.900Z,13.30
2023-04-28T20:22:49.799Z,14.30
2023-04-28T20:25:19.151Z,14.70
2023-04-28T20:27:48.951Z,10.90
2023-04-28T20:30:19.059Z,14.90
2023-04-28T20:32:48.855Z,12.10
2023-04-28T20:35:18.021Z,16.10
2023-04-28T20:37:47.501Z,11.90
2023-04-28T20:40:16.320Z,15.90
2023-04-28T20:42:45.116Z,16.50
2023-04-28T20:45:27.482Z,17.00
2023-04-28T20:47:57.787Z,11.00
2023-04-28T20:50:35.848Z,17.00
2023-04-28T20:53:05.547Z,12.90
2023-04-28T20:55:34.658Z,16.30
2023-04-28T20:58:03.534Z,11.10
2023-04-28T21:00:33.180Z,18.50
2023-04-28T21:03:04.178Z,12.40
2023-04-28T21:05:33.180Z,18.60
2023-04-28T21:08:03.025Z,11.70
2023-04-28T21:10:32.966Z,18.40
2023-04-28T21:13:01.692Z,11.60
2023-04-28T21:15:30.422Z,18.90
2023-04-28T21:17:59.493Z,12.80
2023-04-28T21:20:28.796Z,19.20
2023-04-28T21:22:57.499Z,13.20
2023-04-28T21:25:27.235Z,11.60
2023-04-28T21:27:56.048Z,11.40
2023-04-28T21:30:24.535Z,20.50
2023-04-28T21:32:55.021Z,13.20
2023-04-28T21:35:33.472Z,19.60
2023-04-28T21:38:03.164Z,13.40
2023-04-28T21:40:32.920Z,12.60
2023-04-28T21:43:01.600Z,13.80
2023-04-28T21:45:30.951Z,20.10
2023-04-28T21:48:00.224Z,12.70
2023-04-28T21:50:29.486Z,14.20
2023-04-28T21:53:00.337Z,13.80
2023-04-28T21:55:29.050Z,22.10
2023-04-28T21:58:00.107Z,11.80
2023-04-28T22:00:29.868Z,20.80
2023-04-28T22:02:58.900Z,12.60
2023-04-28T22:05:28.800Z,13.40
2023-04-28T22:07:57.504Z,12.80
2023-04-28T22:10:26.025Z,13.70
2023-04-28T22:12:54.875Z,12.40
2023-04-28T22:15:23.750Z,18.30
2023-04-28T22:17:52.285Z,14.20
2023-04-28T22:20:20.909Z,11.80
2023-04-28T22:23:01.187Z,11.00
2023-04-28T22:25:33.266Z,11.10
2023-04-28T22:28:02.385Z,15.90
2023-04-28T22:30:31.961Z,11.70
2023-04-28T22:33:00.747Z,12.60
2023-04-28T22:35:29.575Z,14.00
2023-04-28T22:37:58.297Z,14.40
2023-04-28T22:40:27.012Z,13.50
2023-04-28T22:42:55.398Z,13.70
2023-04-28T22:45:24.232Z,13.80
2023-04-28T22:47:53.163Z,11.30
2023-04-28T22:50:21.945Z,12.50
2023-04-28T22:52:50.962Z,12.80
2023-04-28T22:55:20.057Z,15.40
2023-04-28T22:57:48.473Z,10.40
2023-04-28T23:00:17.370Z,11.90
2023-04-28T23:02:46.226Z,14.80
2023-04-28T23:05:14.953Z,12.70
2023-04-28T23:07:43.827Z,13.60
2023-04-28T23:10:15.492Z,12.90
2023-04-28T23:12:44.491Z,13.00
2023-04-28T23:15:13.243Z,12.80
2023-04-28T23:17:43.399Z,10.20
2023-04-28T23:20:13.490Z,11.40
2023-04-28T23:22:42.011Z,10.80
2023-04-28T23:25:11.853Z,11.00
2023-04-28T23:27:40.390Z,9.30
2023-04-28T23:30:11.422Z,9.80
2023-04-28T23:32:40.143Z,10.80
2023-04-28T23:35:09.797Z,10.30
2023-04-28T23:37:42.367Z,10.60
2023-04-28T23:40:12.676Z,14.00
2023-04-28T23:42:41.120Z,11.70
2023-04-28T23:45:11.374Z,10.70
2023-04-28T23:47:41.119Z,9.80
2023-04-28T23:50:10.939Z,10.40
2023-04-28T23:52:41.185Z,9.90
2023-04-28T23:55:12.346Z,10.70
2023-04-28T23:57:41.694Z,10.80
